Cockerill, Kansas
Current Conditions -  °F | °C
As of 6:55 AM on Friday 19 Dec 2014 (Local Time) from KPTS Reporting Station
Haze Haze  
Wind Chill: 36°   Ceiling: 300
Heat Index: 36°   Visibility: 1.7mi
Dew Point: 36°   Wind: 3mph
Humidity: 100%   Direction: 30°NNE
Pressure: 30.23"   Gusts: NA
Location:  37.5542°N, 94.6826°W
Report Text: KPTS 191255Z AUTO 03003KT 1 3/4SM BR OVC003 02/02 A3023 RMK AO2 T00200021
Loading
Personal Weather Stations






























Interactive Weather Map New forecast layout! Learn more

10-Day Weather Forecast

Advertisements
Track Severe Weather on mobile